sensor_id;sensor_type;location;lat;lon;timestamp;pressure;altitude;pressure_sealevel;temperature;humidity
80648;BME280;70012;0.000;0.000;2023-08-21T00:01:28;101276.50;;;20.07;78.73
80648;BME280;70012;0.000;0.000;2023-08-21T00:03:55;101281.47;;;20.10;78.56
80648;BME280;70012;0.000;0.000;2023-08-21T00:06:22;101274.03;;;20.00;78.67
80648;BME280;70012;0.000;0.000;2023-08-21T00:08:48;101273.78;;;20.02;79.19
80648;BME280;70012;0.000;0.000;2023-08-21T00:11:15;101286.56;;;20.03;79.12
80648;BME280;70012;0.000;0.000;2023-08-21T00:13:42;101281.56;;;20.00;79.28
80648;BME280;70012;0.000;0.000;2023-08-21T00:16:11;101282.19;;;19.97;79.15
80648;BME280;70012;0.000;0.000;2023-08-21T00:18:38;101286.06;;;19.96;79.54
80648;BME280;70012;0.000;0.000;2023-08-21T00:21:04;101283.31;;;19.91;79.56
80648;BME280;70012;0.000;0.000;2023-08-21T00:23:31;101267.81;;;19.84;79.67
80648;BME280;70012;0.000;0.000;2023-08-21T00:25:58;101265.31;;;19.83;79.83
80648;BME280;70012;0.000;0.000;2023-08-21T00:28:24;101256.16;;;19.82;79.86
80648;BME280;70012;0.000;0.000;2023-08-21T00:30:51;101273.13;;;19.86;79.73
80648;BME280;70012;0.000;0.000;2023-08-21T00:33:17;101255.63;;;19.80;80.18
80648;BME280;70012;0.000;0.000;2023-08-21T00:35:44;101259.81;;;19.78;79.99
80648;BME280;70012;0.000;0.000;2023-08-21T00:38:11;101255.69;;;19.75;80.08
80648;BME280;70012;0.000;0.000;2023-08-21T00:40:38;101263.41;;;19.78;80.40
80648;BME280;70012;0.000;0.000;2023-08-21T00:43:04;101264.03;;;19.75;80.50
80648;BME280;70012;0.000;0.000;2023-08-21T00:45:31;101269.28;;;19.77;80.27
80648;BME280;70012;0.000;0.000;2023-08-21T00:47:58;101267.69;;;19.71;80.67
80648;BME280;70012;0.000;0.000;2023-08-21T00:50:24;101261.31;;;19.70;80.73
80648;BME280;70012;0.000;0.000;2023-08-21T00:52:51;101260.81;;;19.63;80.70
80648;BME280;70012;0.000;0.000;2023-08-21T00:55:18;101261.88;;;19.67;80.52
80648;BME280;70012;0.000;0.000;2023-08-21T00:57:45;101251.09;;;19.60;80.06
80648;BME280;70012;0.000;0.000;2023-08-21T01:00:12;101263.84;;;19.66;80.51
80648;BME280;70012;0.000;0.000;2023-08-21T01:02:39;101249.72;;;19.58;80.40
80648;BME280;70012;0.000;0.000;2023-08-21T01:05:10;101266.38;;;19.63;80.82
80648;BME280;70012;0.000;0.000;2023-08-21T01:07:44;101261.38;;;19.60;80.74
80648;BME280;70012;0.000;0.000;2023-08-21T01:10:29;101260.31;;;19.56;80.82
80648;BME280;70012;0.000;0.000;2023-08-21T01:13:13;101263.38;;;19.54;80.68
80648;BME280;70012;0.000;0.000;2023-08-21T01:15:43;101264.22;;;19.55;81.11
80648;BME280;70012;0.000;0.000;2023-08-21T01:18:10;101278.66;;;19.57;81.31
80648;BME280;70012;0.000;0.000;2023-08-21T01:20:38;101274.47;;;19.54;81.43
80648;BME280;70012;0.000;0.000;2023-08-21T01:23:05;101270.94;;;19.48;81.34
80648;BME280;70012;0.000;0.000;2023-08-21T01:25:34;101272.00;;;19.52;80.92
80648;BME280;70012;0.000;0.000;2023-08-21T01:28:01;101277.06;;;19.45;81.00
80648;BME280;70012;0.000;0.000;2023-08-21T01:30:31;101273.78;;;19.43;81.12
80648;BME280;70012;0.000;0.000;2023-08-21T01:33:05;101276.00;;;19.41;81.28
80648;BME280;70012;0.000;0.000;2023-08-21T01:35:33;101282.97;;;19.39;81.06
80648;BME280;70012;0.000;0.000;2023-08-21T01:38:02;101287.72;;;19.33;81.22
80648;BME280;70012;0.000;0.000;2023-08-21T01:40:30;101287.16;;;19.31;81.25
80648;BME280;70012;0.000;0.000;2023-08-21T01:42:56;101285.78;;;19.33;81.92
80648;BME280;70012;0.000;0.000;2023-08-21T01:45:23;101280.00;;;19.30;81.67
80648;BME280;70012;0.000;0.000;2023-08-21T01:47:50;101268.38;;;19.23;81.54
80648;BME280;70012;0.000;0.000;2023-08-21T01:50:17;101283.03;;;19.28;81.96
80648;BME280;70012;0.000;0.000;2023-08-21T01:52:43;101281.38;;;19.27;81.90
80648;BME280;70012;0.000;0.000;2023-08-21T01:55:10;101273.34;;;19.26;82.10
80648;BME280;70012;0.000;0.000;2023-08-21T01:57:37;101277.22;;;19.25;81.86
80648;BME280;70012;0.000;0.000;2023-08-21T02:00:04;101273.09;;;19.22;82.15
80648;BME280;70012;0.000;0.000;2023-08-21T02:02:31;101273.94;;;19.23;81.98
80648;BME280;70012;0.000;0.000;2023-08-21T02:04:58;101280.03;;;19.19;82.41
80648;BME280;70012;0.000;0.000;2023-08-21T02:07:24;101280.03;;;19.19;82.36
80648;BME280;70012;0.000;0.000;2023-08-21T02:09:51;101278.97;;;19.15;82.45
80648;BME280;70012;0.000;0.000;2023-08-21T02:12:17;101269.56;;;19.11;81.92
80648;BME280;70012;0.000;0.000;2023-08-21T02:14:45;101269.59;;;19.06;81.94
80648;BME280;70012;0.000;0.000;2023-08-21T02:17:11;101267.66;;;19.07;82.07
80648;BME280;70012;0.000;0.000;2023-08-21T02:19:38;101259.66;;;19.00;81.86
80648;BME280;70012;0.000;0.000;2023-08-21T02:22:04;101267.94;;;19.05;82.02
80648;BME280;70012;0.000;0.000;2023-08-21T02:24:31;101263.25;;;19.00;82.30
80648;BME280;70012;0.000;0.000;2023-08-21T02:26:58;101270.75;;;19.00;82.27
80648;BME280;70012;0.000;0.000;2023-08-21T02:29:24;101281.28;;;19.03;82.50
80648;BME280;70012;0.000;0.000;2023-08-21T02:31:51;101268.28;;;18.98;82.40
80648;BME280;70012;0.000;0.000;2023-08-21T02:34:18;101271.31;;;18.97;82.25
80648;BME280;70012;0.000;0.000;2023-08-21T02:36:44;101281.28;;;19.03;82.54
80648;BME280;70012;0.000;0.000;2023-08-21T02:39:11;101276.88;;;18.97;82.70
80648;BME280;70012;0.000;0.000;2023-08-21T02:41:37;101280.78;;;18.96;82.21
80648;BME280;70012;0.000;0.000;2023-08-21T02:44:04;101276.88;;;18.97;82.70
80648;BME280;70012;0.000;0.000;2023-08-21T02:46:30;101272.47;;;18.96;82.54
80648;BME280;70012;0.000;0.000;2023-08-21T02:48:57;101274.69;;;18.94;82.65
80648;BME280;70012;0.000;0.000;2023-08-21T02:51:24;101287.16;;;18.96;82.82
80648;BME280;70012;0.000;0.000;2023-08-21T02:53:51;101285.75;;;18.99;82.85
80648;BME280;70012;0.000;0.000;2023-08-21T02:56:18;101278.00;;;18.96;82.57
80648;BME280;70012;0.000;0.000;2023-08-21T02:58:45;101275.22;;;18.96;82.89
80648;BME280;70012;0.000;0.000;2023-08-21T03:01:11;101281.03;;;18.99;82.96
80648;BME280;70012;0.000;0.000;2023-08-21T03:03:38;101282.66;;;19.00;83.05
80648;BME280;70012;0.000;0.000;2023-08-21T03:06:05;101277.97;;;19.01;82.85
80648;BME280;70012;0.000;0.000;2023-08-21T03:08:31;101269.69;;;18.96;82.76
80648;BME280;70012;0.000;0.000;2023-08-21T03:10:58;101278.53;;;18.98;82.62
80648;BME280;70012;0.000;0.000;2023-08-21T03:13:24;101285.75;;;18.99;82.90
80648;BME280;70012;0.000;0.000;2023-08-21T03:15:51;101284.66;;;18.95;83.54
80648;BME280;70012;0.000;0.000;2023-08-21T03:18:18;101289.09;;;18.91;83.66
80648;BME280;70012;0.000;0.000;2023-08-21T03:20:45;101289.13;;;18.85;83.21
80648;BME280;70012;0.000;0.000;2023-08-21T03:23:12;101299.09;;;18.86;83.27
80648;BME280;70012;0.000;0.000;2023-08-21T03:25:39;101290.50;;;18.88;83.58
80648;BME280;70012;0.000;0.000;2023-08-21T03:28:06;101289.72;;;18.82;83.34
80648;BME280;70012;0.000;0.000;2023-08-21T03:30:32;101290.22;;;18.84;83.26
80648;BME280;70012;0.000;0.000;2023-08-21T03:32:59;101278.34;;;18.79;83.43
80648;BME280;70012;0.000;0.000;2023-08-21T03:35:26;101280.84;;;18.80;83.70
80648;BME280;70012;0.000;0.000;2023-08-21T03:37:52;101279.16;;;18.79;83.66
80648;BME280;70012;0.000;0.000;2023-08-21T03:40:19;101286.94;;;18.82;83.58
80648;BME280;70012;0.000;0.000;2023-08-21T03:42:45;101269.78;;;18.75;83.65
80648;BME280;70012;0.000;0.000;2023-08-21T03:45:12;101265.91;;;18.76;83.36
80648;BME280;70012;0.000;0.000;2023-08-21T03:47:39;101265.38;;;18.69;83.05
80648;BME280;70012;0.000;0.000;2023-08-21T03:50:06;101272.00;;;18.73;83.21
80648;BME280;70012;0.000;0.000;2023-08-21T03:52:33;101263.72;;;18.68;83.13
80648;BME280;70012;0.000;0.000;2023-08-21T03:54:59;101266.53;;;18.63;83.46
80648;BME280;70012;0.000;0.000;2023-08-21T03:57:26;101252.66;;;18.58;83.17
80648;BME280;70012;0.000;0.000;2023-08-21T03:59:52;101267.63;;;18.56;83.28
80648;BME280;70012;0.000;0.000;2023-08-21T04:02:19;101259.66;;;18.50;83.33
80648;BME280;70012;0.000;0.000;2023-08-21T04:04:46;101268.78;;;18.55;83.17
80648;BME280;70012;0.000;0.000;2023-08-21T04:07:12;101262.69;;;18.53;83.28
80648;BME280;70012;0.000;0.000;2023-08-21T04:09:39;101267.97;;;18.50;83.03
80648;BME280;70012;0.000;0.000;2023-08-21T04:12:06;101269.38;;;18.47;83.47
80648;BME280;70012;0.000;0.000;2023-08-21T04:14:32;101277.41;;;18.44;83.46
80648;BME280;70012;0.000;0.000;2023-08-21T04:16:59;101274.94;;;18.42;83.60
80648;BME280;70012;0.000;0.000;2023-08-21T04:19:26;101274.38;;;18.40;83.51
80648;BME280;70012;0.000;0.000;2023-08-21T04:21:56;101279.94;;;18.40;83.68
80648;BME280;70012;0.000;0.000;2023-08-21T04:24:23;101276.59;;;18.38;83.93
80648;BME280;70012;0.000;0.000;2023-08-21T04:26:49;101278.84;;;18.36;83.94
80648;BME280;70012;0.000;0.000;2023-08-21T04:29:16;101271.91;;;18.33;83.35
80648;BME280;70012;0.000;0.000;2023-08-21T04:31:42;101268.91;;;18.30;83.50
80648;BME280;70012;0.000;0.000;2023-08-21T04:34:09;101275.53;;;18.29;83.78
80648;BME280;70012;0.000;0.000;2023-08-21T04:36:36;101271.41;;;18.26;83.93
80648;BME280;70012;0.000;0.000;2023-08-21T04:39:02;101279.16;;;18.24;84.15
80648;BME280;70012;0.000;0.000;2023-08-21T04:41:29;101276.13;;;18.20;83.83
80648;BME280;70012;0.000;0.000;2023-08-21T04:43:56;101285.81;;;18.23;83.93
80648;BME280;70012;0.000;0.000;2023-08-21T04:46:22;101286.34;;;18.20;84.11
80648;BME280;70012;0.000;0.000;2023-08-21T04:48:49;101287.50;;;18.19;84.45
80648;BME280;70012;0.000;0.000;2023-08-21T04:51:15;101291.91;;;18.20;84.71
80648;BME280;70012;0.000;0.000;2023-08-21T04:53:42;101296.38;;;18.16;84.43
80648;BME280;70012;0.000;0.000;2023-08-21T04:56:09;101298.28;;;18.20;84.45
80648;BME280;70012;0.000;0.000;2023-08-21T04:58:35;101295.53;;;18.20;84.56
80648;BME280;70012;0.000;0.000;2023-08-21T05:01:04;101287.75;;;18.17;84.92
80648;BME280;70012;0.000;0.000;2023-08-21T05:03:31;101293.31;;;18.22;84.72
80648;BME280;70012;0.000;0.000;2023-08-21T05:05:58;101296.34;;;18.26;84.73
80648;BME280;70012;0.000;0.000;2023-08-21T05:08:26;101301.00;;;18.31;84.90
80648;BME280;70012;0.000;0.000;2023-08-21T05:10:57;101297.16;;;18.27;84.89
80648;BME280;70012;0.000;0.000;2023-08-21T05:13:24;101294.94;;;18.29;85.09
80648;BME280;70012;0.000;0.000;2023-08-21T05:15:56;101297.69;;;18.34;84.73
80648;BME280;70012;0.000;0.000;2023-08-21T05:18:23;101312.94;;;18.36;85.30
80648;BME280;70012;0.000;0.000;2023-08-21T05:20:53;101303.78;;;18.36;85.26
80648;BME280;70012;0.000;0.000;2023-08-21T05:23:20;101312.63;;;18.43;85.79
80648;BME280;70012;0.000;0.000;2023-08-21T05:25:48;101308.69;;;18.54;85.24
80648;BME280;70012;0.000;0.000;2023-08-21T05:28:15;101313.38;;;18.64;84.94
80648;BME280;70012;0.000;0.000;2023-08-21T05:30:41;101311.16;;;18.66;84.53
80648;BME280;70012;0.000;0.000;2023-08-21T05:33:08;101323.53;;;18.84;84.50
80648;BME280;70012;0.000;0.000;2023-08-21T05:35:36;101314.63;;;18.93;83.76
80648;BME280;70012;0.000;0.000;2023-08-21T05:38:03;101315.97;;;19.00;83.41
80648;BME280;70012;0.000;0.000;2023-08-21T05:40:30;101323.03;;;19.22;83.64
80648;BME280;70012;0.000;0.000;2023-08-21T05:42:57;101318.88;;;19.25;83.83
80648;BME280;70012;0.000;0.000;2023-08-21T05:45:24;101312.16;;;19.31;82.98
80648;BME280;70012;0.000;0.000;2023-08-21T05:47:51;101317.03;;;19.44;82.50
80648;BME280;70012;0.000;0.000;2023-08-21T05:50:17;101308.19;;;19.42;82.70
80648;BME280;70012;0.000;0.000;2023-08-21T05:52:44;101311.47;;;19.49;82.34
80648;BME280;70012;0.000;0.000;2023-08-21T05:55:11;101311.72;;;19.53;82.09
80648;BME280;70012;0.000;0.000;2023-08-21T05:57:38;101314.44;;;19.58;82.60
80648;BME280;70012;0.000;0.000;2023-08-21T06:00:05;101310.75;;;19.68;82.15
80648;BME280;70012;0.000;0.000;2023-08-21T06:02:34;101314.03;;;19.75;82.17
80648;BME280;70012;0.000;0.000;2023-08-21T06:05:02;101320.66;;;19.79;82.15
80648;BME280;70012;0.000;0.000;2023-08-21T06:07:29;101319.53;;;19.80;81.62
80648;BME280;70012;0.000;0.000;2023-08-21T06:09:56;101328.13;;;19.84;81.31
80648;BME280;70012;0.000;0.000;2023-08-21T06:12:23;101322.81;;;19.88;81.61
80648;BME280;70012;0.000;0.000;2023-08-21T06:14:49;101320.53;;;19.95;81.91
80648;BME280;70012;0.000;0.000;2023-08-21T06:17:16;101329.59;;;20.06;81.63
80648;BME280;70012;0.000;0.000;2023-08-21T06:19:43;101325.09;;;20.10;81.43
80648;BME280;70012;0.000;0.000;2023-08-21T06:22:09;101336.94;;;20.21;81.69
80648;BME280;70012;0.000;0.000;2023-08-21T06:24:36;101317.53;;;20.15;80.45
80648;BME280;70012;0.000;0.000;2023-08-21T06:27:03;101325.81;;;20.21;80.32
80648;BME280;70012;0.000;0.000;2023-08-21T06:29:33;101337.47;;;20.23;79.84
80648;BME280;70012;0.000;0.000;2023-08-21T06:32:00;101341.31;;;20.27;79.50
80648;BME280;70012;0.000;0.000;2023-08-21T06:34:26;101345.69;;;20.33;79.39
80648;BME280;70012;0.000;0.000;2023-08-21T06:36:53;101343.53;;;20.30;79.25
80648;BME280;70012;0.000;0.000;2023-08-21T06:39:20;101342.63;;;20.35;78.94
80648;BME280;70012;0.000;0.000;2023-08-21T06:41:46;101358.97;;;20.41;79.03
80648;BME280;70012;0.000;0.000;2023-08-21T06:44:13;101354.44;;;20.45;79.36
80648;BME280;70012;0.000;0.000;2023-08-21T06:46:40;101343.63;;;20.44;79.02
80648;BME280;70012;0.000;0.000;2023-08-21T06:49:06;101347.78;;;20.46;78.37
80648;BME280;70012;0.000;0.000;2023-08-21T06:51:33;101352.69;;;20.55;78.37
80648;BME280;70012;0.000;0.000;2023-08-21T06:54:00;101338.78;;;20.55;78.99
80648;BME280;70012;0.000;0.000;2023-08-21T06:56:26;101338.72;;;20.60;78.09
80648;BME280;70012;0.000;0.000;2023-08-21T06:58:53;101335.84;;;20.65;78.36
80648;BME280;70012;0.000;0.000;2023-08-21T07:01:21;101336.94;;;20.69;77.82
80648;BME280;70012;0.000;0.000;2023-08-21T07:03:48;101334.09;;;20.74;77.99
80648;BME280;70012;0.000;0.000;2023-08-21T07:06:14;101337.88;;;20.84;78.68
80648;BME280;70012;0.000;0.000;2023-08-21T07:08:41;101345.50;;;20.97;79.30
80648;BME280;70012;0.000;0.000;2023-08-21T07:11:08;101337.88;;;21.03;78.72
80648;BME280;70012;0.000;0.000;2023-08-21T07:13:36;101341.97;;;21.10;77.58
80648;BME280;70012;0.000;0.000;2023-08-21T07:16:03;101344.66;;;21.16;78.18
80648;BME280;70012;0.000;0.000;2023-08-21T07:18:33;101340.06;;;21.25;77.59
80648;BME280;70012;0.000;0.000;2023-08-21T07:21:00;101351.16;;;21.30;76.84
80648;BME280;70012;0.000;0.000;2023-08-21T07:23:27;101338.78;;;21.36;76.83
80648;BME280;70012;0.000;0.000;2023-08-21T07:25:54;101347.88;;;21.42;76.08
80648;BME280;70012;0.000;0.000;2023-08-21T07:28:20;101346.22;;;21.41;75.43
80648;BME280;70012;0.000;0.000;2023-08-21T07:30:47;101351.94;;;21.50;75.34
80648;BME280;70012;0.000;0.000;2023-08-21T07:33:14;101347.72;;;21.52;75.91
80648;BME280;70012;0.000;0.000;2023-08-21T07:35:40;101346.06;;;21.51;75.43
80648;BME280;70012;0.000;0.000;2023-08-21T07:38:07;101346.84;;;21.57;75.19
80648;BME280;70012;0.000;0.000;2023-08-21T07:40:34;101348.44;;;21.63;74.84
80648;BME280;70012;0.000;0.000;2023-08-21T07:43:00;101341.72;;;21.64;74.57
80648;BME280;70012;0.000;0.000;2023-08-21T07:45:27;101336.06;;;21.69;75.10
80648;BME280;70012;0.000;0.000;2023-08-21T07:47:53;101339.06;;;21.73;75.89
80648;BME280;70012;0.000;0.000;2023-08-21T07:50:39;101343.09;;;21.81;76.43
80648;BME280;70012;0.000;0.000;2023-08-21T07:53:06;101352.63;;;21.94;76.66
80648;BME280;70012;0.000;0.000;2023-08-21T07:55:32;101347.28;;;21.97;75.82
80648;BME280;70012;0.000;0.000;2023-08-21T07:57:59;101349.34;;;22.05;75.33
80648;BME280;70012;0.000;0.000;2023-08-21T08:00:25;101348.94;;;22.12;74.90
80648;BME280;70012;0.000;0.000;2023-08-21T08:02:52;101344.19;;;22.13;74.43
80648;BME280;70012;0.000;0.000;2023-08-21T08:05:19;101346.28;;;22.21;74.61
80648;BME280;70012;0.000;0.000;2023-08-21T08:07:45;101351.03;;;22.20;73.78
80648;BME280;70012;0.000;0.000;2023-08-21T08:10:15;101342.34;;;22.22;74.12
80648;BME280;70012;0.000;0.000;2023-08-21T08:12:42;101347.81;;;22.27;74.04
80648;BME280;70012;0.000;0.000;2023-08-21T08:15:10;101347.56;;;22.43;74.50
80648;BME280;70012;0.000;0.000;2023-08-21T08:17:37;101350.75;;;22.50;74.55
80648;BME280;70012;0.000;0.000;2023-08-21T08:20:04;101349.41;;;22.61;75.02
80648;BME280;70012;0.000;0.000;2023-08-21T08:22:32;101344.84;;;22.65;74.66
80648;BME280;70012;0.000;0.000;2023-08-21T08:24:59;101355.94;;;22.70;73.36
80648;BME280;70012;0.000;0.000;2023-08-21T08:27:25;101356.34;;;22.78;73.37
80648;BME280;70012;0.000;0.000;2023-08-21T08:29:53;101348.97;;;22.82;72.58
80648;BME280;70012;0.000;0.000;2023-08-21T08:32:19;101351.03;;;22.90;72.38
80648;BME280;70012;0.000;0.000;2023-08-21T08:34:46;101344.81;;;22.93;71.45
80648;BME280;70012;0.000;0.000;2023-08-21T08:37:13;101349.97;;;23.00;71.60
80648;BME280;70012;0.000;0.000;2023-08-21T08:39:40;101337.16;;;22.99;71.46
80648;BME280;70012;0.000;0.000;2023-08-21T08:42:07;101350.56;;;23.11;71.19
80648;BME280;70012;0.000;0.000;2023-08-21T08:44:35;101343.81;;;23.12;70.10
80648;BME280;70012;0.000;0.000;2023-08-21T08:47:03;101343.75;;;23.17;70.32
80648;BME280;70012;0.000;0.000;2023-08-21T08:49:30;101341.84;;;23.26;70.91
80648;BME280;70012;0.000;0.000;2023-08-21T08:51:57;101342.88;;;23.30;70.33
80648;BME280;70012;0.000;0.000;2023-08-21T08:54:25;101337.03;;;23.41;71.31
80648;BME280;70012;0.000;0.000;2023-08-21T08:56:53;101335.38;;;23.40;69.96
80648;BME280;70012;0.000;0.000;2023-08-21T08:59:20;101340.03;;;23.44;69.90
80648;BME280;70012;0.000;0.000;2023-08-21T09:01:47;101336.16;;;23.54;69.93
80648;BME280;70012;0.000;0.000;2023-08-21T09:04:13;101339.78;;;23.55;68.84
80648;BME280;70012;0.000;0.000;2023-08-21T09:06:40;101330.56;;;23.54;68.89
80648;BME280;70012;0.000;0.000;2023-08-21T09:09:08;101331.09;;;23.56;68.65
80648;BME280;70012;0.000;0.000;2023-08-21T09:11:42;101336.72;;;23.65;69.58
80648;BME280;70012;0.000;0.000;2023-08-21T09:14:09;101352.13;;;23.85;68.89
80648;BME280;70012;0.000;0.000;2023-08-21T09:16:36;101338.34;;;23.89;67.60
80648;BME280;70012;0.000;0.000;2023-08-21T09:19:03;101347.31;;;24.00;67.52
80648;BME280;70012;0.000;0.000;2023-08-21T09:21:29;101343.38;;;24.01;66.55
80648;BME280;70012;0.000;0.000;2023-08-21T09:23:58;101343.31;;;24.14;66.50
80648;BME280;70012;0.000;0.000;2023-08-21T09:26:32;101342.31;;;24.19;65.95
80648;BME280;70012;0.000;0.000;2023-08-21T09:28:59;101349.28;;;24.30;65.57
80648;BME280;70012;0.000;0.000;2023-08-21T09:31:32;101341.25;;;24.38;66.55
80648;BME280;70012;0.000;0.000;2023-08-21T09:34:01;101341.63;;;24.45;66.80
80648;BME280;70012;0.000;0.000;2023-08-21T09:36:32;101343.63;;;24.62;66.19
80648;BME280;70012;0.000;0.000;2023-08-21T09:38:59;101346.63;;;24.66;65.30
80648;BME280;70012;0.000;0.000;2023-08-21T09:41:26;101346.16;;;24.72;65.97
80648;BME280;70012;0.000;0.000;2023-08-21T09:43:58;101353.94;;;24.84;64.83
80648;BME280;70012;0.000;0.000;2023-08-21T09:46:26;101349.31;;;24.88;63.66
80648;BME280;70012;0.000;0.000;2023-08-21T09:48:57;101343.41;;;24.99;63.31
80648;BME280;70012;0.000;0.000;2023-08-21T09:51:26;101347.88;;;25.17;63.69
80648;BME280;70012;0.000;0.000;2023-08-21T09:53:53;101351.16;;;25.28;64.33
80648;BME280;70012;0.000;0.000;2023-08-21T09:56:21;101347.34;;;25.33;63.55
80648;BME280;70012;0.000;0.000;2023-08-21T09:58:48;101348.88;;;25.48;63.75
80648;BME280;70012;0.000;0.000;2023-08-21T10:01:17;101346.25;;;25.51;63.05
80648;BME280;70012;0.000;0.000;2023-08-21T10:03:46;101327.75;;;25.59;62.59
80648;BME280;70012;0.000;0.000;2023-08-21T10:06:18;101345.38;;;25.77;60.92
80648;BME280;70012;0.000;0.000;2023-08-21T10:08:50;101324.59;;;25.78;60.31
80648;BME280;70012;0.000;0.000;2023-08-21T10:11:20;101334.78;;;25.92;59.21
80648;BME280;70012;0.000;0.000;2023-08-21T10:13:48;101327.47;;;26.08;61.01
80648;BME280;70012;0.000;0.000;2023-08-21T10:16:18;101325.28;;;26.23;60.06
80648;BME280;70012;0.000;0.000;2023-08-21T10:18:47;101311.56;;;26.30;59.93
80648;BME280;70012;0.000;0.000;2023-08-21T10:21:19;101327.63;;;26.50;59.74
80648;BME280;70012;0.000;0.000;2023-08-21T10:23:51;101322.78;;;26.60;59.31
80648;BME280;70012;0.000;0.000;2023-08-21T10:26:21;101324.50;;;26.73;59.07
80648;BME280;70012;0.000;0.000;2023-08-21T10:29:14;101322.50;;;26.82;58.11
80648;BME280;70012;0.000;0.000;2023-08-21T10:31:41;101320.53;;;26.74;57.02
80648;BME280;70012;0.000;0.000;2023-08-21T10:34:11;101321.50;;;26.87;57.57
80648;BME280;70012;0.000;0.000;2023-08-21T10:39:27;101311.28;;;27.25;57.56
80648;BME280;70012;0.000;0.000;2023-08-21T10:42:00;101301.47;;;27.31;55.89
80648;BME280;70012;0.000;0.000;2023-08-21T10:44:54;101316.22;;;27.49;56.11
80648;BME280;70012;0.000;0.000;2023-08-21T10:47:21;101310.00;;;27.56;55.85
80648;BME280;70012;0.000;0.000;2023-08-21T10:49:54;101307.44;;;27.63;54.64
80648;BME280;70012;0.000;0.000;2023-08-21T10:55:02;101304.81;;;27.91;54.46
80648;BME280;70012;0.000;0.000;2023-08-21T10:57:33;101304.25;;;27.98;54.64
80648;BME280;70012;0.000;0.000;2023-08-21T11:00:04;101314.63;;;28.19;53.46
80648;BME280;70012;0.000;0.000;2023-08-21T11:02:32;101309.13;;;28.22;52.74
80648;BME280;70012;0.000;0.000;2023-08-21T11:05:03;101311.94;;;28.22;53.34
80648;BME280;70012;0.000;0.000;2023-08-21T11:07:31;101300.53;;;28.31;52.64
80648;BME280;70012;0.000;0.000;2023-08-21T11:10:03;101301.81;;;28.46;53.21
80648;BME280;70012;0.000;0.000;2023-08-21T11:12:30;101305.69;;;28.41;53.13
80648;BME280;70012;0.000;0.000;2023-08-21T11:14:57;101308.72;;;28.61;53.17
80648;BME280;70012;0.000;0.000;2023-08-21T11:17:23;101307.56;;;28.62;52.25
80648;BME280;70012;0.000;0.000;2023-08-21T11:19:50;101311.53;;;28.61;51.48
80648;BME280;70012;0.000;0.000;2023-08-21T11:22:17;101313.41;;;28.82;53.04
80648;BME280;70012;0.000;0.000;2023-08-21T11:24:46;101316.44;;;28.89;50.85
80648;BME280;70012;0.000;0.000;2023-08-21T11:27:15;101315.00;;;29.07;51.49
80648;BME280;70012;0.000;0.000;2023-08-21T11:29:50;101307.22;;;29.17;48.63
80648;BME280;70012;0.000;0.000;2023-08-21T11:32:22;101314.94;;;29.32;49.20
80648;BME280;70012;0.000;0.000;2023-08-21T11:34:54;101314.41;;;29.43;49.57
80648;BME280;70012;0.000;0.000;2023-08-21T11:37:26;101313.31;;;29.31;50.19
80648;BME280;70012;0.000;0.000;2023-08-21T11:39:56;101317.28;;;29.30;50.11
80648;BME280;70012;0.000;0.000;2023-08-21T11:42:31;101319.88;;;29.23;49.51
80648;BME280;70012;0.000;0.000;2023-08-21T11:45:00;101318.94;;;29.31;50.38
80648;BME280;70012;0.000;0.000;2023-08-21T11:47:34;101315.34;;;29.47;50.17
80648;BME280;70012;0.000;0.000;2023-08-21T11:50:03;101318.41;;;29.42;50.48
80648;BME280;70012;0.000;0.000;2023-08-21T11:52:31;101319.50;;;28.96;49.78
80648;BME280;70012;0.000;0.000;2023-08-21T11:54:58;101313.31;;;28.78;51.22
80648;BME280;70012;0.000;0.000;2023-08-21T11:57:26;101305.44;;;28.84;51.50
80648;BME280;70012;0.000;0.000;2023-08-21T11:59:54;101311.97;;;29.00;51.54
80648;BME280;70012;0.000;0.000;2023-08-21T12:05:04;101310.72;;;29.26;50.37
80648;BME280;70012;0.000;0.000;2023-08-21T12:07:32;101302.94;;;29.35;50.00
80648;BME280;70012;0.000;0.000;2023-08-21T12:10:00;101310.25;;;29.24;49.68
80648;BME280;70012;0.000;0.000;2023-08-21T12:12:27;101313.97;;;29.28;49.67
80648;BME280;70012;0.000;0.000;2023-08-21T12:14:54;101309.72;;;29.47;47.39
80648;BME280;70012;0.000;0.000;2023-08-21T12:17:20;101306.72;;;29.55;48.12
80648;BME280;70012;0.000;0.000;2023-08-21T12:19:47;101310.28;;;29.68;50.17
80648;BME280;70012;0.000;0.000;2023-08-21T12:22:16;101308.75;;;29.71;47.40
80648;BME280;70012;0.000;0.000;2023-08-21T12:24:43;101306.63;;;29.52;48.27
80648;BME280;70012;0.000;0.000;2023-08-21T12:27:09;101312.72;;;29.54;48.76
80648;BME280;70012;0.000;0.000;2023-08-21T12:29:36;101301.78;;;29.52;48.76
80648;BME280;70012;0.000;0.000;2023-08-21T12:32:03;101307.72;;;29.63;48.17
80648;BME280;70012;0.000;0.000;2023-08-21T12:34:30;101307.03;;;29.66;48.68
80648;BME280;70012;0.000;0.000;2023-08-21T12:36:56;101300.25;;;29.55;47.12
80648;BME280;70012;0.000;0.000;2023-08-21T12:39:23;101305.59;;;29.44;47.57
80648;BME280;70012;0.000;0.000;2023-08-21T12:41:49;101314.72;;;29.53;48.17
80648;BME280;70012;0.000;0.000;2023-08-21T12:44:16;101298.28;;;29.71;47.89
80648;BME280;70012;0.000;0.000;2023-08-21T12:46:43;101291.00;;;29.70;47.59
80648;BME280;70012;0.000;0.000;2023-08-21T12:49:09;101302.66;;;29.85;46.54
80648;BME280;70012;0.000;0.000;2023-08-21T12:51:36;101291.38;;;29.85;46.53
80648;BME280;70012;0.000;0.000;2023-08-21T12:54:04;101300.66;;;29.69;46.63
80648;BME280;70012;0.000;0.000;2023-08-21T12:56:30;101281.56;;;29.79;46.24
80648;BME280;70012;0.000;0.000;2023-08-21T12:58:57;101288.88;;;29.96;45.08
80648;BME280;70012;0.000;0.000;2023-08-21T13:01:26;101291.13;;;30.06;45.77
80648;BME280;70012;0.000;0.000;2023-08-21T13:03:52;101288.00;;;29.79;45.01
80648;BME280;70012;0.000;0.000;2023-08-21T13:06:19;101291.38;;;29.85;45.04
80648;BME280;70012;0.000;0.000;2023-08-21T13:08:46;101287.19;;;29.79;46.22
80648;BME280;70012;0.000;0.000;2023-08-21T13:11:13;101279.53;;;29.63;45.67